New Lexington, Ohio
Current Conditions -  °F | °C
As of 8:53 PM on Friday 28 Nov 2014 (Local Time) from KZZV Reporting Station
Few Clouds Few Clouds  
Wind Chill: 22°   Ceiling: Unl
Heat Index: 29°   Visibility: 10mi
Dew Point: 17°   Wind: 7mph
Humidity: 61%   Direction: 160°SSE
Pressure: 30.19"   Gusts: NA
Location:  39.71°N, 82.21°W
Report Text: KZZV 290153Z AUTO 16006KT 10SM FEW120 M02/M08 A3019 RMK AO2 SLP234 T10171083
Loading
Personal Weather Stations






























Interactive Weather Map New forecast layout! Learn more

10-Day Weather Forecast

Advertisements
Track Severe Weather on mobile